Friday, August 26, 2016, 7:20 PM EDT

KLNS, Lancaster Airport

Location: Lititz, PA, United States Lat: 40.117
Local Time: 7:20 PM EDT (23:20 GMT) Lon: -76.3
Time Zone: US/Eastern Elev: 403 ft

Show me the last for .
Show Decoded

2016-08-26 18:53 METAR KLNS 262253Z 01004KT 10SM CLR 31/20 A3005 RMK AO2 SLP170 T03060200 =
2016-08-26 17:53 METAR KLNS 262153Z 34007KT 10SM FEW050 32/21 A3005 RMK AO2 SLP170 T03170206 =
2016-08-26 16:53 METAR KLNS 262053Z 32009KT 10SM FEW050 32/21 A3004 RMK AO2 SLP168 T03220206
                 55005 =
2016-08-26 15:53 METAR KLNS 261953Z 33008KT 10SM FEW050 32/21 A3004 RMK AO2 SLP168 T03220211 =
2016-08-26 14:53 METAR KLNS 261853Z 33010KT 10SM FEW050 32/21 A3005 RMK AO2 SLP170 T03170206 =
2016-08-26 13:53 METAR KLNS 261753Z 32011KT 10SM SCT037 32/21 A3005 RMK AO2 SLP173 T03170211
                 10322 20244 58002 =
2016-08-26 12:53 METAR KLNS 261653Z 30011KT 10SM SCT037 31/22 A3005 RMK AO2 SLP173 T03110222 =
2016-08-26 11:53 METAR KLNS 261553Z 31011KT 10SM FEW033 30/22 A3006 RMK AO2 SLP176 T03000222 =
2016-08-26 10:53 METAR KLNS 261453Z 32012KT 10SM FEW028 29/23 A3006 RMK AO2 SLP175 T02940228
                 51005 =
2016-08-26 09:53 METAR KLNS 261353Z 32010KT 10SM CLR 28/23 A3005 RMK AO2 SLP173 T02830233 =
2016-08-26 08:53 METAR KLNS 261253Z 30009KT 8SM CLR 27/25 A3006 RMK AO2 SLP173 T02720250 =
2016-08-26 07:53 METAR KLNS 261153Z 29006KT 3SM BR CLR 24/24 A3005 RMK AO2 SLP171 60001 70001
                 T02440244 10244 20217 53010 =
2016-08-26 06:53 METAR KLNS 261053Z 28003KT 3SM BR CLR 23/23 A3004 RMK AO2 SLP169 T02280228 =
2016-08-26 05:53 METAR KLNS 260953Z 25004KT 3SM BR CLR 23/23 A3002 RMK AO2 RAE08 SLP163 P0000
                 T02330233 =
2016-08-26 04:53 METAR KLNS 260853Z AUTO 27004KT 3SM RA BR SCT018 BKN070 OVC090 24/24 A3002 RMK
                 AO2 RAB38 SLP161 P0001 60001 T02390239 53006 =
2016-08-26 04:03 METAR KLNS 260803Z AUTO 00000KT 4SM BR CLR 23/23 A3000 RMK AO2 LTG DSNT NW
                 T02280228 =
2016-08-26 03:53 METAR KLNS 260753Z AUTO 03004KT 2 1/2SM BR CLR 22/22 A3000 RMK AO2 LTG DSNT NW
                 SLP154 T02220222 =
2016-08-26 02:53 METAR KLNS 260653Z AUTO 12004KT 2SM BR FEW044 22/22 A2999 RMK AO2 SLP154
                 T02220222 =
2016-08-26 02:41 METAR KLNS 260641Z AUTO 11003KT 2SM BR FEW044 22/22 A3000 RMK AO2 T02220222 =
2016-08-26 01:53 METAR KLNS 260553Z AUTO 01003KT 4SM BR CLR 23/23 A3000 RMK AO2 SLP155 T02280228
                 10272 20228 56006 =
2016-08-26 00:53 METAR KLNS 260453Z AUTO 00000KT 4SM BR CLR 23/23 A3000 RMK AO2 SLP156 T02280228
                 403000178 =
2016-08-25 23:53 METAR KLNS 260353Z AUTO 08003KT 7SM CLR 24/23 A3001 RMK AO2 SLP159 T02390233 =
2016-08-25 22:53 METAR KLNS 260253Z AUTO 00000KT 9SM CLR 24/23 A3002 RMK AO2 SLP161 T02440233
                 51001 =
2016-08-25 21:53 METAR KLNS 260153Z 00000KT 8SM CLR 24/23 A3002 RMK AO2 SLP161 T02440233 =
2016-08-25 20:53 METAR KLNS 260053Z 11003KT 10SM CLR 26/23 A3002 RMK AO2 SLP163 T02560233 =
2016-08-25 19:53 METAR KLNS 252353Z 17005KT 10SM CLR 27/24 A3001 RMK AO2 SLP160 T02720239 10300
                 20272 55002 =

Support USWX by starting your Amazon purchase here.